CDC8987 ZSLI-ZSHC
Flight info
| Callsign | CDC8987 |
|---|---|
| Flight time | 0h 37m |
| Altitude | 20700 |
| Route | OSPAM A470 UGAGO |
| Aircraft | A21N/M-SDE2E3FGHIRWXY/LB1 |
Departure
| Time | 2026-05-04 05:11 |
|---|---|
| Airport | Lishui Airport (ZSLI) |
Arrival
| Time | 2026-05-04 05:49 |
|---|---|
| Airport | Hangzhou Xiaoshan International Airport (ZSHC) |
| Time | Latitude | Longitude | Altitude | Speed | Heading |
|---|---|---|---|---|---|
| 2026-05-04 04:57 | 28.37440 | 119.83524 | 557 ft | 0 kts | 324° |
| 2026-05-04 05:01 | 28.37435 | 119.83528 | 557 ft | 2 kts | 322° |
| 2026-05-04 05:01 | 28.37422 | 119.83539 | 557 ft | 2 kts | 326° |
| 2026-05-04 05:01 | 28.37409 | 119.83547 | 557 ft | 2 kts | 353° |
| 2026-05-04 05:02 | 28.37394 | 119.83546 | 557 ft | 2 kts | 24° |
| 2026-05-04 05:02 | 28.37383 | 119.83537 | 557 ft | 0 kts | 51° |
| 2026-05-04 05:02 | 28.37379 | 119.83531 | 557 ft | 1 kts | 56° |
| 2026-05-04 05:02 | 28.37378 | 119.83530 | 557 ft | 0 kts | 55° |
| 2026-05-04 05:06 | 28.37373 | 119.83640 | 557 ft | 11 kts | 144° |
| 2026-05-04 05:06 | 28.37322 | 119.83679 | 557 ft | 2 kts | 144° |
| 2026-05-04 05:09 | 28.36831 | 119.83112 | 558 ft | 19 kts | 235° |
| 2026-05-04 05:09 | 28.36754 | 119.82988 | 558 ft | 18 kts | 235° |
| 2026-05-04 05:10 | 28.36678 | 119.82867 | 558 ft | 18 kts | 236° |
| 2026-05-04 05:10 | 28.36605 | 119.82748 | 558 ft | 18 kts | 234° |
| 2026-05-04 05:10 | 28.36532 | 119.82631 | 558 ft | 18 kts | 236° |
| 2026-05-04 05:10 | 28.36495 | 119.82501 | 558 ft | 15 kts | 262° |
| 2026-05-04 05:11 | 28.36434 | 119.82465 | 558 ft | 10 kts | 117° |
| 2026-05-04 05:11 | 28.36454 | 119.82505 | 558 ft | 4 kts | 51° |
| 2026-05-04 05:11 | 28.36465 | 119.82522 | 558 ft | 11 kts | 54° |
| 2026-05-04 05:11 | 28.36668 | 119.82851 | 558 ft | 90 kts | 54° |
| 2026-05-04 05:12 | 28.37172 | 119.83660 | 558 ft | 157 kts | 55° |
| 2026-05-04 05:12 | 28.37844 | 119.84744 | 1013 ft | 173 kts | 55° |
| 2026-05-04 05:12 | 28.38554 | 119.85833 | 1725 ft | 177 kts | 52° |
| 2026-05-04 05:12 | 28.39447 | 119.86792 | 2491 ft | 180 kts | 38° |
| 2026-05-04 05:13 | 28.40590 | 119.87483 | 3031 ft | 197 kts | 21° |
| 2026-05-04 05:13 | 28.42000 | 119.87779 | 3558 ft | 216 kts | 2° |
| 2026-05-04 05:13 | 28.43513 | 119.87511 | 4186 ft | 229 kts | 342° |
| 2026-05-04 05:13 | 28.44917 | 119.86625 | 4972 ft | 236 kts | 321° |
| 2026-05-04 05:14 | 28.45963 | 119.85219 | 5857 ft | 240 kts | 301° |
| 2026-05-04 05:14 | 28.46528 | 119.83388 | 6520 ft | 255 kts | 279° |
| 2026-05-04 05:14 | 28.46427 | 119.81401 | 7366 ft | 260 kts | 256° |
| 2026-05-04 05:14 | 28.45698 | 119.79546 | 8250 ft | 262 kts | 240° |
| 2026-05-04 05:15 | 28.44663 | 119.77848 | 9140 ft | 263 kts | 236° |
| 2026-05-04 05:15 | 28.43586 | 119.76202 | 9988 ft | 264 kts | 236° |
| 2026-05-04 05:15 | 28.42505 | 119.74515 | 10830 ft | 264 kts | 237° |
| 2026-05-04 05:15 | 28.41528 | 119.72797 | 11625 ft | 262 kts | 250° |
| 2026-05-04 05:16 | 28.41323 | 119.70787 | 12328 ft | 258 kts | 284° |
| 2026-05-04 05:16 | 28.41977 | 119.68863 | 12790 ft | 270 kts | 294° |
| 2026-05-04 05:16 | 28.42746 | 119.66851 | 13159 ft | 287 kts | 293° |
| 2026-05-04 05:16 | 28.43516 | 119.64712 | 13500 ft | 305 kts | 292° |
| 2026-05-04 05:17 | 28.44368 | 119.62417 | 13814 ft | 323 kts | 297° |
| 2026-05-04 05:17 | 28.45782 | 119.60362 | 14095 ft | 342 kts | 316° |
| 2026-05-04 05:17 | 28.47854 | 119.58911 | 14367 ft | 364 kts | 336° |
| 2026-05-04 05:17 | 28.50398 | 119.58356 | 14627 ft | 387 kts | 356° |
| 2026-05-04 05:18 | 28.53143 | 119.58512 | 14914 ft | 403 kts | 360° |
| 2026-05-04 05:18 | 28.56029 | 119.58710 | 15185 ft | 417 kts | 360° |
| 2026-05-04 05:18 | 28.58942 | 119.58902 | 15598 ft | 426 kts | 360° |
| 2026-05-04 05:18 | 28.61941 | 119.59100 | 16177 ft | 430 kts | 359° |
| 2026-05-04 05:19 | 28.64924 | 119.59294 | 16693 ft | 434 kts | 359° |
| 2026-05-04 05:19 | 28.67949 | 119.59485 | 17195 ft | 439 kts | 358° |
| 2026-05-04 05:19 | 28.71024 | 119.59675 | 17670 ft | 444 kts | 358° |
| 2026-05-04 05:19 | 28.74119 | 119.59869 | 18172 ft | 448 kts | 358° |
| 2026-05-04 05:20 | 28.77245 | 119.60062 | 18662 ft | 451 kts | 358° |
| 2026-05-04 05:20 | 28.80414 | 119.60256 | 19112 ft | 456 kts | 358° |
| 2026-05-04 05:20 | 28.83593 | 119.60452 | 19551 ft | 460 kts | 358° |
| 2026-05-04 05:20 | 28.86791 | 119.60651 | 19951 ft | 465 kts | 358° |
| 2026-05-04 05:21 | 28.90024 | 119.60852 | 20356 ft | 469 kts | 358° |
| 2026-05-04 05:21 | 28.93309 | 119.61058 | 20705 ft | 473 kts | 357° |
| 2026-05-04 05:21 | 28.96585 | 119.61264 | 20789 ft | 474 kts | 357° |
| 2026-05-04 05:21 | 28.99918 | 119.61472 | 20794 ft | 474 kts | 357° |
| 2026-05-04 05:22 | 29.03182 | 119.61675 | 20793 ft | 474 kts | 358° |
| 2026-05-04 05:22 | 29.06477 | 119.61881 | 20790 ft | 473 kts | 358° |
| 2026-05-04 05:22 | 29.09792 | 119.62089 | 20793 ft | 474 kts | 358° |
| 2026-05-04 05:22 | 29.13077 | 119.62287 | 20799 ft | 473 kts | 358° |
| 2026-05-04 05:23 | 29.16377 | 119.62489 | 20798 ft | 473 kts | 358° |
| 2026-05-04 05:23 | 29.19635 | 119.62684 | 20796 ft | 473 kts | 358° |
| 2026-05-04 05:23 | 29.22936 | 119.62884 | 20794 ft | 472 kts | 358° |
| 2026-05-04 05:23 | 29.26218 | 119.63086 | 20798 ft | 472 kts | 357° |
| 2026-05-04 05:24 | 29.29513 | 119.63288 | 20805 ft | 471 kts | 358° |
| 2026-05-04 05:24 | 29.32772 | 119.63487 | 20807 ft | 471 kts | 358° |
| 2026-05-04 05:24 | 29.36050 | 119.63688 | 20810 ft | 472 kts | 358° |
| 2026-05-04 05:24 | 29.39312 | 119.63886 | 20811 ft | 471 kts | 358° |
| 2026-05-04 05:25 | 29.42606 | 119.64089 | 20814 ft | 470 kts | 358° |
| 2026-05-04 05:25 | 29.45861 | 119.64290 | 20817 ft | 470 kts | 358° |
| 2026-05-04 05:25 | 29.49129 | 119.64491 | 20814 ft | 470 kts | 358° |
| 2026-05-04 05:25 | 29.52397 | 119.64692 | 20818 ft | 471 kts | 358° |
| 2026-05-04 05:26 | 29.55648 | 119.64889 | 20589 ft | 457 kts | 357° |
| 2026-05-04 05:26 | 29.58742 | 119.65013 | 19576 ft | 447 kts | 358° |
| 2026-05-04 05:26 | 29.61793 | 119.65652 | 17979 ft | 456 kts | 17° |
| 2026-05-04 05:26 | 29.64467 | 119.67497 | 16799 ft | 451 kts | 38° |
| 2026-05-04 05:27 | 29.66561 | 119.70184 | 16337 ft | 446 kts | 49° |
| 2026-05-04 05:28 | 29.79590 | 119.88917 | 12637 ft | 413 kts | 48° |
| 2026-05-04 05:29 | 29.81378 | 119.91465 | 12125 ft | 406 kts | 49° |
| 2026-05-04 05:29 | 29.83106 | 119.93930 | 11745 ft | 394 kts | 49° |
| 2026-05-04 05:29 | 29.84711 | 119.96423 | 11499 ft | 381 kts | 53° |
| 2026-05-04 05:29 | 29.86125 | 119.98989 | 11259 ft | 369 kts | 57° |
| 2026-05-04 05:31 | 29.93758 | 120.15087 | 9974 ft | 286 kts | 58° |
| 2026-05-04 05:31 | 29.94703 | 120.17084 | 9651 ft | 283 kts | 58° |
| 2026-05-04 05:32 | 29.95640 | 120.19062 | 9295 ft | 282 kts | 58° |
| 2026-05-04 05:32 | 29.96578 | 120.21043 | 8945 ft | 280 kts | 58° |
| 2026-05-04 05:32 | 29.97515 | 120.23024 | 8603 ft | 278 kts | 58° |
| 2026-05-04 05:33 | 29.99346 | 120.26896 | 7926 ft | 274 kts | 59° |
| 2026-05-04 05:33 | 30.00238 | 120.28827 | 7761 ft | 275 kts | 60° |
| 2026-05-04 05:33 | 30.01123 | 120.30808 | 7785 ft | 278 kts | 60° |
| 2026-05-04 05:33 | 30.02013 | 120.32812 | 7813 ft | 280 kts | 60° |
| 2026-05-04 05:34 | 30.02897 | 120.34799 | 7822 ft | 279 kts | 60° |
| 2026-05-04 05:34 | 30.03781 | 120.36793 | 7834 ft | 280 kts | 60° |
| 2026-05-04 05:34 | 30.04667 | 120.38785 | 7834 ft | 280 kts | 60° |
| 2026-05-04 05:34 | 30.05563 | 120.40796 | 7833 ft | 279 kts | 60° |
| 2026-05-04 05:35 | 30.06440 | 120.42768 | 7833 ft | 279 kts | 60° |
| 2026-05-04 05:35 | 30.07324 | 120.44757 | 7837 ft | 279 kts | 60° |
| 2026-05-04 05:35 | 30.08215 | 120.46762 | 7839 ft | 279 kts | 60° |
| 2026-05-04 05:35 | 30.09104 | 120.48766 | 7839 ft | 280 kts | 60° |
| 2026-05-04 05:36 | 30.09989 | 120.50757 | 7839 ft | 279 kts | 60° |
| 2026-05-04 05:36 | 30.10878 | 120.52759 | 7833 ft | 273 kts | 60° |
| 2026-05-04 05:36 | 30.11709 | 120.54639 | 7826 ft | 257 kts | 60° |
| 2026-05-04 05:36 | 30.12500 | 120.56432 | 7823 ft | 242 kts | 59° |
| 2026-05-04 05:37 | 30.13252 | 120.58129 | 7823 ft | 234 kts | 59° |
| 2026-05-04 05:37 | 30.13989 | 120.59790 | 7837 ft | 234 kts | 59° |
| 2026-05-04 05:37 | 30.14731 | 120.61464 | 7840 ft | 234 kts | 59° |
| 2026-05-04 05:38 | 30.16115 | 120.64613 | 7859 ft | 198 kts | 59° |
| 2026-05-04 05:38 | 30.16706 | 120.65962 | 7813 ft | 183 kts | 59° |
| 2026-05-04 05:38 | 30.17300 | 120.67303 | 7839 ft | 189 kts | 58° |
| 2026-05-04 05:38 | 30.17900 | 120.68652 | 7844 ft | 190 kts | 59° |
| 2026-05-04 05:39 | 30.18500 | 120.70008 | 7841 ft | 190 kts | 59° |
| 2026-05-04 05:39 | 30.19697 | 120.72720 | 7505 ft | 189 kts | 59° |
| 2026-05-04 05:39 | 30.20287 | 120.74062 | 7261 ft | 188 kts | 59° |
| 2026-05-04 05:40 | 30.22010 | 120.76127 | 6720 ft | 178 kts | 17° |
| 2026-05-04 05:40 | 30.23222 | 120.76311 | 6446 ft | 175 kts | 353° |
| 2026-05-04 05:40 | 30.24381 | 120.75913 | 6202 ft | 173 kts | 335° |
| 2026-05-04 05:41 | 30.25458 | 120.75294 | 5974 ft | 175 kts | 333° |
| 2026-05-04 05:41 | 30.26548 | 120.74647 | 5739 ft | 174 kts | 333° |
| 2026-05-04 05:41 | 30.27615 | 120.74016 | 5511 ft | 174 kts | 333° |
| 2026-05-04 05:41 | 30.28703 | 120.73377 | 5284 ft | 174 kts | 333° |
| 2026-05-04 05:42 | 30.29788 | 120.72739 | 5055 ft | 175 kts | 333° |
| 2026-05-04 05:42 | 30.30881 | 120.72097 | 4830 ft | 175 kts | 333° |
| 2026-05-04 05:42 | 30.31964 | 120.71463 | 4607 ft | 176 kts | 333° |
| 2026-05-04 05:42 | 30.33070 | 120.70815 | 4384 ft | 176 kts | 333° |
| 2026-05-04 05:43 | 30.34153 | 120.70175 | 4157 ft | 176 kts | 330° |
| 2026-05-04 05:43 | 30.35045 | 120.69205 | 3918 ft | 176 kts | 301° |
| 2026-05-04 05:43 | 30.35333 | 120.67856 | 3891 ft | 178 kts | 267° |
| 2026-05-04 05:45 | 30.31814 | 120.58820 | 2729 ft | 175 kts | 242° |
| 2026-05-04 05:45 | 30.31248 | 120.57551 | 2507 ft | 176 kts | 242° |
| 2026-05-04 05:47 | 30.27677 | 120.49522 | 1056 ft | 142 kts | 242° |
| 2026-05-04 05:47 | 30.27230 | 120.48515 | 879 ft | 140 kts | 242° |
| 2026-05-04 05:47 | 30.26782 | 120.47507 | 699 ft | 140 kts | 241° |
| 2026-05-04 05:48 | 30.26328 | 120.46519 | 526 ft | 139 kts | 243° |
| 2026-05-04 05:48 | 30.25900 | 120.45516 | 331 ft | 139 kts | 243° |
| 2026-05-04 05:48 | 30.25457 | 120.44515 | 173 ft | 139 kts | 241° |
| 2026-05-04 05:48 | 30.25020 | 120.43532 | 39 ft | 133 kts | 242° |
| 2026-05-04 05:49 | 30.24641 | 120.42691 | 29 ft | 97 kts | 243° |
| 2026-05-04 05:49 | 30.24410 | 120.42162 | 29 ft | 54 kts | 243° |
| 2026-05-04 05:49 | 30.24211 | 120.41858 | 29 ft | 36 kts | 216° |
| 2026-05-04 05:49 | 30.24045 | 120.41718 | 29 ft | 26 kts | 216° |
| 2026-05-04 05:51 | 30.23900 | 120.42091 | 29 ft | 9 kts | 231° |
| 2026-05-04 05:51 | 30.23875 | 120.42054 | 29 ft | 4 kts | 232° |
| 2026-05-04 05:52 | 30.23867 | 120.42043 | 29 ft | 0 kts | 231° |
| 2026-05-04 05:54 | 30.28326 | 120.50983 | 1325 ft | 142 kts | 243° |